Situs API Video Gratis Terbaik

AVDBAPI.COM

Cari katalog, periksa data, dan salin URL API bersih dari satu dasbor cepat.

Telegram Gabung komunitas Telegram untuk update!
Today
0
Pembaruan Hari Ini
Censored
314089
Video Disensor
Total
474268
Total Video

Daftar Video

Data terbaru diurutkan berdasarkan waktu pembaruan.

ID Nama CODE Kategori Diperbarui API
264094 RED-10789: Yuka Tsubasa RED-107-B Tanpa sensor 2025-08-29 01:34:00 API
264093 021822-001 Mai Shirakawa, aktris seksi yang harus melayani pacar pimpmya yang egois 021822-001 Tanpa sensor 2025-08-29 01:33:50 API
264092 H4610-KI220623 Gadis 21 Tahun Kaori Tsuchiura H4610-KI220623 Tanpa sensor 2025-08-29 01:33:40 API
264091 HEYZO-2718 Suami Istri Mizuno [Mizu no Fusai Myu] Istri Amatir Dicukur Bersih, Tukar ASI, Pelatihan Amnesia Berkelanjutan 2 HEYZO-2718 Tanpa sensor 2025-08-29 01:33:30 API
264090 C0930-KI211007 Maki Higuchi Wanita 32 Tahun C0930-KI211007 Tanpa sensor 2025-08-29 01:33:20 API
264089 MCY0226 Pelan-pelan, pacarku lagi tidur, kecanduan kenikmatan haram MCY0226 AV China 2025-08-29 01:33:10 API
264088 H4610-ORI1783 Natsumi Isomura, Gadis 20 Tahun yang Menggoda H4610-ORI1783 Tanpa sensor 2025-08-29 01:33:00 API
264087 H-1624 Ayaka Yoshioka Usia 29 Tahun H-1624 Tanpa sensor 2025-08-29 01:32:50 API
264085 FC2-PPV-4501095 Mangaka 18 Tahun Kulit Eksotis, Dihajar Habis FC2-PPV-4501095 Tanpa sensor 2025-08-29 01:32:30 API
264084 HEYZO-2701 Emi Sakurai [Emi Sasara] Aku mencoba melakukan banyak hal cabul pada wanita bersuami yang sangat menggoda ini HEYZO-2701 Tanpa sensor 2025-08-29 01:32:20 API
264083 022322-001 Koleksi Terbaik Miyuki Sakura 022322-001 Tanpa sensor 2025-08-29 01:32:10 API
264082 CARIBBEANCOMPR-110416_001 Model S Tinggi 162 Terlalu Erotis Dengan Cream Pie Sperma Melimpah CARIBBEANCOMPR-110416_001 Tanpa sensor 2025-08-29 01:32:00 API
264081 MSD139 Ibu Tiri Gatel Pecandu Main, Ketagihan Bau Sperma Anak Tirinya MSD139 AV China 2025-08-29 01:31:50 API
264080 091020_001 Miyu Ohno, aktris terbaik yang bisa keluar 3 kali berturut 091020_001 Tanpa sensor 2025-08-29 01:31:40 API
264079 060421-01 Suka Traveling Sendirian, Tapi Lebih Suka Dikentot Cowok yang Ditemui Saat Jalan 060421-01 Tanpa sensor 2025-08-29 01:31:30 API
264078 C0930-KI211010 Wanita Matang 43 Tahun Keiko Ayata C0930-KI211010 Tanpa sensor 2025-08-29 01:31:20 API
264077 H4610-KI220626 Hiroko Nagatomo Usia 27 Tahun H4610-KI220626 Tanpa sensor 2025-08-29 01:31:10 API
264075 PM046 Pria Bajingan Mematikan - Bagian 1 / Awal Mula Balas Dendam dan Perundungan oleh Wanita Jahat PM046 AV China 2025-08-29 01:30:50 API
264074 021321-434 Menghajar Tuntas Bibi Mesum yang Sedang Menungging Pasrah 021321-434 Tanpa sensor 2025-08-29 01:30:40 API
264073 H0930-KI220322 Cantik Jelita Asaoka Chisaki Usia 28 Tahun H0930-KI220322 Tanpa sensor 2025-08-29 01:30:30 API
264072 FC2-PPV-4494864 Terbatas 2 hari 500 poin! *Review belum selesai / Tes lubang kemaluan FC2-PPV-4494864 Tanpa sensor 2025-08-29 01:30:20 API
264071 CUS-1824 Melanggar Aturan Tak Tertulis Pewawancara Hingga Akhirnya Dikentot CUS-1824 AV China 2025-08-29 01:30:10 API
264070 HEYZO-2702 Aya Tamano [Tama no Aisa] Non-stop! Surga Kenikmatan Dengan Payudara Besar Yang Kenyal HEYZO-2702 Tanpa sensor 2025-08-29 01:30:00 API
264069 SR021 Rekaman Rekrutmen Lulusan Baru No.021 Eri [Rekaman Pribadi] SR021 Tanpa sensor 2025-08-29 01:29:50 API
264068 C0930-HITOZUMA1365 Maiko Yokono Cantik Usia 26 Tahun C0930-HITOZUMA1365 Tanpa sensor 2025-08-29 01:29:40 API
264067 H4610-KI220625 Gadis Cantik 23 Tahun Chisato Yamanaka H4610-KI220625 Tanpa sensor 2025-08-29 01:29:30 API
264066 060521-01 060121-01 Era Seragam ~ Sudah lama tidak melihat kontol jadi sangeku nggak bisa berhenti ~ 060521-01 Tanpa sensor 2025-08-29 01:29:20 API
264065 CUS-1823 Kencan Seks Ibu Perawan: Kontras Gila Antara Sosok Ibu dan Pelacur CUS-1823 AV China 2025-08-29 01:29:10 API
264064 021621-435 Istri Cantik Mantan Model yang Nafsu Seksnya Tak Terbendung 021621-435 Tanpa sensor 2025-08-29 01:29:00 API
264063 CARIBBEANCOMPR-111116_004 Gadis Laforet Vol.76 Mau Pesan Apa Malam Ini?!! CARIBBEANCOMPR-111116_004 Tanpa sensor 2025-08-29 01:28:50 API
264062 091220_001 Enak Banget Ngentot Tanpa Henti Bareng Miyabi 091220_001 Tanpa sensor 2025-08-29 01:28:40 API
264061 C0930-KI211012 Chiemi Shima Wanita 28 Tahun C0930-KI211012 Tanpa sensor 2025-08-29 01:28:30 API
264060 022522-001 0222522-001 Pengasuhan Dewasa ~ Bab-chan Senang Banget Terkubur di Payudara Cup D ~ Emiri Momota 022522-001 Tanpa sensor 2025-08-29 01:28:20 API
264059 H0930-KI220324 Yumiko Furuhashi Cantik Usia 38 Tahun H0930-KI220324 Tanpa sensor 2025-08-29 01:28:10 API
264058 FSOG111 Panggilan Bangun Tidur Sang Pelayan Seksi FSOG111 AV China 2025-08-29 01:28:00 API
264057 H-220625 Chisato Yamanaka H-220625 Tanpa sensor 2025-08-29 01:27:50 API
264056 SR022 Rekaman Rekrutmen Lulusan Baru No.022 Haruka [Rekaman Pribadi] SR022 Tanpa sensor 2025-08-29 01:27:40 API
264055 MD0294 Gangbang Creampie Kakak Beradik Mafia / Tema: Perselingkuhan, Balas Dendam, Bestiality MD0294 AV China 2025-08-29 01:27:30 API
264054 021821-436 Seks Brutal Bareng Istri Orang Doyan Kontol yang Mesum 021821-436 Tanpa sensor 2025-08-29 01:27:20 API
264053 060621-01 Koleksi Memek Pilihan - Lihat Memek Hiroko - 060621-01 Tanpa sensor 2025-08-29 01:27:10 API
264052 091520_001 Saori Okumura ~ Edisi Spesial Saori Okumura ~ 091520_001 Tanpa sensor 2025-08-29 01:27:00 API
264051 C0930-KI211014 Sasahara Yoshino Wanita Matang 39 Tahun C0930-KI211014 Tanpa sensor 2025-08-29 01:26:50 API
264050 030222-001 Versi Tak Rilis ~ Masturbasi Dildo Sudut Rendah yang Intens ~ Kokoro Wato Minami Sakamoto 030222-001 Tanpa sensor 2025-08-29 01:26:40 API
264049 HEYZO-2703 Misao Himeno [Misao Hime] Aku ingin stimulasi! Makanya aku debut jadi bintang AV! Vol.2 HEYZO-2703 Tanpa sensor 2025-08-29 01:26:30 API
264048 FC2-PPV-4500785 Akhirnya Berakhir! NTR Hitam 3P! Di Depan Batang Hitam Teman Laki-lakimu, Onaho Terjang Terus! Saat Puncak Gairah, Nafsu Liar Menghancurkan Logika! FC2-PPV-4500785 Tanpa sensor 2025-08-29 01:26:20 API
264047 CUS-1822 Wanita Cantik China Inisiatif Naik ke Atas Ranjang Demi Tempat Tinggal, Pakai Teknik Mijiri Goda Bos CUS-1822 AV China 2025-08-29 01:26:10 API
264046 PME094 Paman Mesum Mainin Memek Keponakannya Sampai Basah PME094 AV China 2025-08-29 01:26:00 API
264045 H-220626 Hiroko Nagatomo H-220626 Tanpa sensor 2025-08-29 01:25:50 API
264044 030322-001-2 Buku Foto Anal Nanako Asahina 030322-001-2 Tanpa sensor 2025-08-29 01:25:40 API
264043 SR023 Rekaman Rekrutmen Lulusan Baru No.023 Megumi [Rekaman Pribadi] SR023 Tanpa sensor 2025-08-29 01:25:30 API